Time;durP1;ratioP1;P1;durP2;ratioP2;P2;SDS_P1;SDS_P2;PMS_P1;PMS_P2;Temp;Humidity;BMP_temperature;BMP_pressure;BME280_temperature;BME280_humidity;BME280_pressure;Samples;Min_cycle;Max_cycle;Signal;HPM_P1;HPM_P2
2023/03/30 00:05:04;;;;;;;5.70;1.27;;;;;;;;;;10519952;28;19927;-78
2023/03/30 00:10:06;;;;;;;;;;;;;;;;;;10515523;28;20040;-79
2023/03/30 00:15:12;;;;;;;5.78;1.30;;;;;;;;;;10514732;28;19985;-80
2023/03/30 00:20:16;;;;;;;3.53;0.82;;;;;;;;;;10521265;28;20032;-77
2023/03/30 00:25:19;;;;;;;7.63;1.60;;;;;;;;;;10516793;28;20139;-77
2023/03/30 00:30:23;;;;;;;9.00;2.33;;;;;;;;;;10518489;28;20044;-79
2023/03/30 00:35:29;;;;;;;;;;;;;;;;;;10515434;28;20036;-78
2023/03/30 00:40:33;;;;;;;6.28;1.88;;;;;;;;;;10516964;28;20011;-79
2023/03/30 00:45:39;;;;;;;5.00;1.30;;;;;;;;;;10498050;28;20106;-80
2023/03/30 00:50:44;;;;;;;5.25;2.10;;;;;;;;;;10521546;28;20553;-80
2023/03/30 00:55:49;;;;;;;5.82;1.30;;;;;;;;;;10520366;28;20044;-79
2023/03/30 01:00:54;;;;;;;7.15;2.03;;;;;;;;;;10518892;28;20047;-79
2023/03/30 01:06:06;;;;;;;7.10;1.70;;;;;;;;;;10525067;28;20040;-78
2023/03/30 01:11:09;;;;;;;8.63;1.67;;;;;;;;;;10511039;28;20064;-78
2023/03/30 01:16:14;;;;;;;;;;;;;;;;;;10528283;28;20036;-76
2023/03/30 01:21:36;;;;;;;1.17;0.60;;;;;;;;;;10528194;28;19928;-78
2023/03/30 01:26:47;;;;;;;2.05;0.63;;;;;;;;;;10531010;28;20044;-78
2023/03/30 01:32:17;;;;;;;5.68;1.42;;;;;;;;;;10526356;28;20481;-78
2023/03/30 01:37:39;;;;;;;5.07;1.10;;;;;;;;;;10484657;28;20151;-77
2023/03/30 01:42:49;;;;;;;4.25;1.25;;;;;;;;;;10519418;28;20614;-78
2023/03/30 02:00:13;;;;;;;4.22;1.05;;;;;;;;;;10390478;28;20034;-80
2023/03/30 02:05:19;;;;;;;4.20;1.10;;;;;;;;;;10504467;28;20080;-80
2023/03/30 02:10:25;;;;;;;6.35;1.50;;;;;;;;;;10519022;28;20040;-80
2023/03/30 02:15:33;;;;;;;11.98;3.05;;;;;;;;;;10509544;28;20127;-78
2023/03/30 02:20:37;;;;;;;1.52;0.77;;;;;;;;;;10512895;28;20046;-77
2023/03/30 02:25:40;;;;;;;2.70;1.00;;;;;;;;;;10515808;28;20127;-78
2023/03/30 02:30:46;;;;;;;6.72;1.67;;;;;;;;;;10513279;28;20040;-76
2023/03/30 02:35:56;;;;;;;4.07;1.10;;;;;;;;;;10523699;28;20036;-79
2023/03/30 02:41:07;;;;;;;8.30;1.42;;;;;;;;;;10523349;28;20040;-80
2023/03/30 02:46:17;;;;;;;6.75;1.30;;;;;;;;;;10521993;28;20118;-79
2023/03/30 02:51:27;;;;;;;7.55;1.88;;;;;;;;;;10503343;28;20139;-79
2023/03/30 02:56:36;;;;;;;9.13;1.70;;;;;;;;;;10521475;28;20410;-80
2023/03/30 03:01:42;;;;;;;6.13;1.48;;;;;;;;;;10520789;28;20463;-79
2023/03/30 03:06:46;;;;;;;9.35;1.50;;;;;;;;;;10521951;28;20368;-77
2023/03/30 03:11:49;;;;;;;7.82;1.75;;;;;;;;;;10517082;28;20478;-77
2023/03/30 03:16:54;;;;;;;7.68;1.65;;;;;;;;;;10519141;28;20036;-80
2023/03/30 03:21:58;;;;;;;7.57;1.25;;;;;;;;;;10500139;28;20063;-80
2023/03/30 03:27:07;;;;;;;8.75;1.58;;;;;;;;;;10520088;28;20066;-78
2023/03/30 03:32:12;;;;;;;4.90;1.50;;;;;;;;;;10517601;28;20040;-77
2023/03/30 03:37:15;;;;;;;12.15;1.75;;;;;;;;;;10522784;28;20044;-79
2023/03/30 03:42:18;;;;;;;11.18;2.33;;;;;;;;;;10522263;28;20047;-77
2023/03/30 03:47:22;;;;;;;8.95;2.00;;;;;;;;;;10518560;28;20068;-78
2023/03/30 03:52:25;;;;;;;12.93;1.92;;;;;;;;;;10523808;28;20052;-78
2023/03/30 03:57:28;;;;;;;10.68;2.38;;;;;;;;;;10517148;28;20032;-78
2023/03/30 04:02:33;;;;;;;9.50;2.13;;;;;;;;;;10520857;28;20146;-78
2023/03/30 04:07:36;;;;;;;5.00;1.70;;;;;;;;;;10517661;28;20402;-78
2023/03/30 04:12:39;;;;;;;16.05;4.63;;;;;;;;;;10520273;28;20043;-77
2023/03/30 04:17:48;;;;;;;19.08;5.25;;;;;;;;;;10522145;28;20067;-79
2023/03/30 04:23:00;;;;;;;12.90;4.00;;;;;;;;;;10527880;28;20036;-80
2023/03/30 04:28:03;;;;;;;11.80;2.33;;;;;;;;;;10518913;28;20040;-81
2023/03/30 04:33:08;;;;;;;8.63;2.80;;;;;;;;;;10521035;28;20093;-80
2023/03/30 04:38:12;;;;;;;7.53;1.52;;;;;;;;;;10516579;28;20036;-80
2023/03/30 04:43:18;;;;;;;9.00;1.80;;;;;;;;;;10498370;28;20490;-80
2023/03/30 04:48:23;;;;;;;12.93;2.67;;;;;;;;;;10518069;28;20410;-80
2023/03/30 04:53:26;;;;;;;6.57;1.85;;;;;;;;;;10522077;28;20044;-81
2023/03/30 04:58:29;;;;;;;12.90;2.53;;;;;;;;;;10517831;28;20044;-81
2023/03/30 05:03:34;;;;;;;10.20;2.37;;;;;;;;;;10518540;28;20039;-78
2023/03/30 05:08:37;;;;;;;5.32;1.77;;;;;;;;;;10516527;28;20392;-77
2023/03/30 05:13:43;;;;;;;9.00;2.17;;;;;;;;;;10516621;28;20479;-79
2023/03/30 05:18:47;;;;;;;12.60;2.97;;;;;;;;;;10514957;28;20115;-79
2023/03/30 05:23:54;;;;;;;8.07;2.00;;;;;;;;;;10515684;28;20389;-79
2023/03/30 05:28:57;;;;;;;4.93;1.55;;;;;;;;;;10496424;28;20056;-80
2023/03/30 05:34:01;;;;;;;3.63;1.45;;;;;;;;;;10512047;28;20048;-78
2023/03/30 05:39:05;;;;;;;15.93;2.45;;;;;;;;;;10515984;28;20114;-79
2023/03/30 05:44:07;;;;;;;7.03;1.80;;;;;;;;;;10519952;28;20043;-80
2023/03/30 05:49:12;;;;;;;5.75;1.75;;;;;;;;;;10519086;28;20397;-81
2023/03/30 05:54:16;;;;;;;9.57;2.20;;;;;;;;;;10515753;28;20036;-86
2023/03/30 05:59:21;;;;;;;14.25;2.97;;;;;;;;;;10520302;28;20044;-84
2023/03/30 06:04:26;;;;;;;16.15;3.70;;;;;;;;;;10523328;28;20121;-85
2023/03/30 06:09:29;;;;;;;8.63;2.35;;;;;;;;;;10538785;28;20044;-86
2023/03/30 06:14:34;;;;;;;16.33;3.33;;;;;;;;;;10534107;28;20043;-89
2023/03/30 06:25:18;;;;;;;8.45;2.50;;;;;;;;;;10558426;28;20036;-90
2023/03/30 06:41:25;;;;;;;10.40;3.42;;;;;;;;;;10589614;27;20043;-88
2023/03/30 06:46:35;;;;;;;7.93;3.55;;;;;;;;;;10577637;28;20024;-88
2023/03/30 06:52:00;;;;;;;10.30;3.38;;;;;;;;;;10578794;28;20056;-89
2023/03/30 06:57:32;;;;;;;7.32;3.00;;;;;;;;;;10753609;27;20416;-88
2023/03/30 07:02:35;;;;;;;17.17;4.20;;;;;;;;;;10696925;27;20046;-89
2023/03/30 07:07:38;;;;;;;9.07;3.25;;;;;;;;;;10718576;27;20039;-88
2023/03/30 07:12:52;;;;;;;6.47;1.65;;;;;;;;;;10695754;27;20472;-89
2023/03/30 07:17:55;;;;;;;7.47;2.80;;;;;;;;;;10683798;27;20117;-88
2023/03/30 07:23:10;;;;;;;10.13;3.03;;;;;;;;;;10690067;27;20042;-88
2023/03/30 07:28:24;;;;;;;9.45;2.70;;;;;;;;;;10686680;27;20103;-88
2023/03/30 07:33:35;;;;;;;6.47;2.40;;;;;;;;;;10682221;27;20041;-90
2023/03/30 07:38:39;;;;;;;6.85;2.20;;;;;;;;;;10696031;27;20035;-88
2023/03/30 07:43:44;;;;;;;15.52;2.97;;;;;;;;;;10666973;27;20114;-88
2023/03/30 07:48:46;;;;;;;5.20;2.30;;;;;;;;;;10661988;27;20090;-88
2023/03/30 07:53:50;;;;;;;;;;;;;;;;;;10664657;27;20026;-88
2023/03/30 07:58:55;;;;;;;8.57;2.50;;;;;;;;;;10679442;27;20383;-87
2023/03/30 08:04:01;;;;;;;9.07;2.47;;;;;;;;;;10659734;27;20038;-87
2023/03/30 08:09:04;;;;;;;11.02;3.53;;;;;;;;;;10660588;27;20042;-87
2023/03/30 08:14:09;;;;;;;6.88;2.03;;;;;;;;;;10647221;27;20265;-85
2023/03/30 08:19:13;;;;;;;9.02;2.45;;;;;;;;;;10649512;27;20050;-88
2023/03/30 08:24:15;;;;;;;7.75;2.20;;;;;;;;;;10652215;27;20027;-88
2023/03/30 08:29:21;;;;;;;13.40;2.88;;;;;;;;;;10652351;27;20031;-88
2023/03/30 08:34:24;;;;;;;7.40;1.95;;;;;;;;;;10652368;27;20457;-89
2023/03/30 08:39:27;;;;;;;13.10;2.92;;;;;;;;;;10651692;27;20047;-88
2023/03/30 08:44:36;;;;;;;6.38;1.85;;;;;;;;;;10628166;27;20055;-88
2023/03/30 08:49:52;;;;;;;8.70;1.58;;;;;;;;;;10648550;27;20043;-85
2023/03/30 08:55:03;;;;;;;10.95;2.20;;;;;;;;;;10632307;27;20581;-86
2023/03/30 09:00:28;;;;;;;13.15;2.20;;;;;;;;;;10623151;27;20127;-86
2023/03/30 09:05:36;;;;;;;8.48;2.05;;;;;;;;;;10644065;27;20027;-87
2023/03/30 09:10:48;;;;;;;3.85;1.67;;;;;;;;;;10645814;27;20512;-87
2023/03/30 09:16:13;;;;;;;2.72;1.23;;;;;;;;;;10646589;27;20091;-86
2023/03/30 09:21:38;;;;;;;5.95;1.73;;;;;;;;;;10626856;27;20122;-86
2023/03/30 09:27:07;;;;;;;7.78;2.22;;;;;;;;;;10643040;27;20579;-86
2023/03/30 09:32:23;;;;;;;9.35;2.38;;;;;;;;;;10639687;27;20042;-85
2023/03/30 09:37:32;;;;;;;5.13;1.85;;;;;;;;;;10627655;27;20129;-86
2023/03/30 09:42:39;;;;;;;;;;;;;;;;;;10626064;27;20039;-85
2023/03/30 09:53:08;;;;;;;;;;;;;;;;;;10647567;27;20380;-84
2023/03/30 09:58:43;;;;;;;;;;;;;;;;;;10646717;27;19941;-83
2023/03/30 10:04:01;;;;;;;;;;;;;;;;;;10622846;27;19947;-83
2023/03/30 10:09:07;;;;;;;;;;;;;;;;;;10627139;27;19923;-82
2023/03/30 10:14:32;;;;;;;;;;;;;;;;;;10639835;27;19923;-83
2023/03/30 10:20:09;;;;;;;14.32;2.50;;;;;;;;;;10622741;27;20330;-83
2023/03/30 10:25:17;;;;;;;;;;;;;;;;;;10642860;27;20070;-81
2023/03/30 10:30:26;;;;;;;;;;;;;;;;;;10604642;27;19930;-82
2023/03/30 10:35:32;;;;;;;;;;;;;;;;;;10642352;27;19918;-81
2023/03/30 10:40:47;;;;;;;;;;;;;;;;;;10643479;27;19939;-81
2023/03/30 10:46:00;;;;;;;;;;;;;;;;;;10626480;27;19926;-82
2023/03/30 10:51:22;;;;;;;;;;;;;;;;;;10607000;27;19927;-82
2023/03/30 10:56:41;;;;;;;12.57;2.45;;;;;;;;;;10634269;27;19938;-83
2023/03/30 11:02:08;;;;;;;18.77;2.47;;;;;;;;;;10639504;27;20046;-82
2023/03/30 11:07:28;;;;;;;8.95;2.47;;;;;;;;;;10625821;27;20070;-81
2023/03/30 11:12:36;;;;;;;13.68;2.17;;;;;;;;;;10637273;27;20052;-81
2023/03/30 11:17:49;;;;;;;9.55;2.53;;;;;;;;;;10623940;27;20083;-82
2023/03/30 11:28:55;;;;;;;13.02;2.40;;;;;;;;;;10617666;27;20051;-83
2023/03/30 11:34:04;;;;;;;4.68;1.80;;;;;;;;;;10617894;27;20080;-81
2023/03/30 11:39:25;;;;;;;8.10;1.80;;;;;;;;;;10620379;27;20039;-81
2023/03/30 11:44:37;;;;;;;6.65;1.77;;;;;;;;;;10648390;27;20052;-82
2023/03/30 11:49:56;;;;;;;7.15;2.08;;;;;;;;;;10657812;27;20065;-80
2023/03/30 11:55:15;;;;;;;7.63;2.30;;;;;;;;;;10685131;27;20043;-80
2023/03/30 12:00:33;;;;;;;6.43;2.25;;;;;;;;;;10682274;27;20046;-82
2023/03/30 12:11:11;;;;;;;4.00;2.30;;;;;;;;;;10669595;27;20042;-81
2023/03/30 12:16:41;;;;;;;7.72;1.88;;;;;;;;;;10618781;27;20511;-81
2023/03/30 12:22:22;;;;;;;3.40;2.38;;;;;;;;;;10641488;27;20031;-81
2023/03/30 12:27:59;;;;;;;6.05;2.20;;;;;;;;;;10622967;27;20209;-80
2023/03/30 12:33:28;;;;;;;4.70;2.03;;;;;;;;;;10642028;27;20042;-80
2023/03/30 12:38:45;;;;;;;6.63;2.50;;;;;;;;;;10642791;27;20547;-80
2023/03/30 12:44:18;;;;;;;3.78;1.70;;;;;;;;;;10634650;27;20388;-80
2023/03/30 12:50:02;;;;;;;8.23;2.45;;;;;;;;;;10645370;27;20043;-80
2023/03/30 12:55:31;;;;;;;7.65;2.67;;;;;;;;;;10624063;27;20026;-81
2023/03/30 13:01:06;;;;;;;5.15;2.58;;;;;;;;;;10639458;27;20035;-81
2023/03/30 13:06:37;;;;;;;3.42;1.67;;;;;;;;;;10642003;27;20055;-81
2023/03/30 13:12:21;;;;;;;4.90;1.38;;;;;;;;;;10644400;27;20038;-80
2023/03/30 13:17:53;;;;;;;4.40;1.77;;;;;;;;;;10638977;27;20342;-80
2023/03/30 13:23:23;;;;;;;2.97;1.10;;;;;;;;;;10618247;27;20050;-81
2023/03/30 13:28:50;;;;;;;11.77;1.48;;;;;;;;;;10640240;27;20518;-80
2023/03/30 13:34:16;;;;;;;4.85;1.40;;;;;;;;;;10619398;27;20034;-82
2023/03/30 13:39:33;;;;;;;5.15;1.55;;;;;;;;;;10641133;27;20037;-81
2023/03/30 13:44:51;;;;;;;2.33;1.23;;;;;;;;;;10625594;27;20038;-81
2023/03/30 13:50:31;;;;;;;2.42;1.63;;;;;;;;;;10617098;27;20043;-81
2023/03/30 13:55:40;;;;;;;3.28;1.40;;;;;;;;;;10638546;27;20047;-81
2023/03/30 14:01:06;;;;;;;3.40;1.60;;;;;;;;;;10632261;27;20042;-80
2023/03/30 14:06:27;;;;;;;1.40;0.90;;;;;;;;;;10617750;27;20035;-82
2023/03/30 14:11:48;;;;;;;5.70;1.50;;;;;;;;;;10624065;27;20496;-82
2023/03/30 14:16:55;;;;;;;4.20;1.05;;;;;;;;;;10625525;27;20047;-83
2023/03/30 14:27:24;;;;;;;3.25;1.67;;;;;;;;;;10648331;27;20058;-83
2023/03/30 14:32:37;;;;;;;3.38;1.33;;;;;;;;;;10608555;27;20073;-83
2023/03/30 14:43:29;;;;;;;6.35;2.38;;;;;;;;;;10641904;27;20057;-82
2023/03/30 14:48:41;;;;;;;5.22;2.42;;;;;;;;;;10631552;27;20043;-83
2023/03/30 14:53:56;;;;;;;5.47;2.28;;;;;;;;;;10630131;27;20046;-83
2023/03/30 14:59:11;;;;;;;8.93;2.80;;;;;;;;;;10641091;27;20099;-84
2023/03/30 15:04:37;;;;;;;5.72;2.45;;;;;;;;;;10645256;27;20035;-82
2023/03/30 15:10:13;;;;;;;6.68;2.60;;;;;;;;;;10623405;27;20047;-83
2023/03/30 15:15:26;;;;;;;6.85;2.90;;;;;;;;;;10647005;27;20042;-83
2023/03/30 15:20:32;;;;;;;5.50;2.60;;;;;;;;;;10636959;27;20380;-83
2023/03/30 15:25:43;;;;;;;4.47;1.88;;;;;;;;;;10633039;27;20345;-83
2023/03/30 15:30:59;;;;;;;4.05;2.15;;;;;;;;;;10650093;27;20047;-82
2023/03/30 15:36:07;;;;;;;3.92;2.53;;;;;;;;;;10650580;27;20142;-83
2023/03/30 15:41:23;;;;;;;5.03;2.13;;;;;;;;;;10642771;27;20051;-82
2023/03/30 15:46:32;;;;;;;6.60;3.13;;;;;;;;;;10645128;27;20045;-83
2023/03/30 15:51:40;;;;;;;10.68;4.05;;;;;;;;;;10643683;27;20131;-82
2023/03/30 15:57:07;;;;;;;5.10;2.55;;;;;;;;;;10643479;27;20130;-81
2023/03/30 16:02:33;;;;;;;7.50;2.25;;;;;;;;;;10643998;27;20108;-82
2023/03/30 16:07:40;;;;;;;5.40;2.70;;;;;;;;;;10628938;27;20127;-81
2023/03/30 16:12:48;;;;;;;5.45;2.40;;;;;;;;;;10629882;27;20046;-81
2023/03/30 16:18:09;;;;;;;7.18;2.75;;;;;;;;;;10648013;27;20410;-81
2023/03/30 16:23:30;;;;;;;4.93;2.75;;;;;;;;;;10644762;27;20550;-82
2023/03/30 16:28:47;;;;;;;4.03;2.17;;;;;;;;;;10642667;27;20077;-80
2023/03/30 16:34:02;;;;;;;5.85;2.50;;;;;;;;;;10643713;27;20157;-81
2023/03/30 16:39:17;;;;;;;6.55;3.53;;;;;;;;;;10642100;27;20038;-82
2023/03/30 16:44:27;;;;;;;6.18;2.60;;;;;;;;;;10619747;27;20047;-81
2023/03/30 16:49:43;;;;;;;4.72;2.78;;;;;;;;;;10647879;27;20087;-81
2023/03/30 16:54:57;;;;;;;6.03;2.15;;;;;;;;;;10634138;27;20250;-81
2023/03/30 17:00:18;;;;;;;3.80;2.25;;;;;;;;;;10631795;27;20053;-81
2023/03/30 17:05:32;;;;;;;7.15;2.67;;;;;;;;;;10630394;27;21195;-80
2023/03/30 17:10:47;;;;;;;4.07;2.03;;;;;;;;;;10627904;27;20125;-81
2023/03/30 17:15:53;;;;;;;8.43;3.88;;;;;;;;;;10652602;27;20058;-78
2023/03/30 17:21:15;;;;;;;7.55;3.17;;;;;;;;;;10672255;27;20078;-80
2023/03/30 17:26:21;;;;;;;7.47;3.17;;;;;;;;;;10657253;27;20037;-79
2023/03/30 17:31:28;;;;;;;7.28;2.55;;;;;;;;;;10665194;27;20533;-82
2023/03/30 17:36:45;;;;;;;6.47;2.35;;;;;;;;;;10650412;27;20042;-80
2023/03/30 17:42:01;;;;;;;7.28;3.08;;;;;;;;;;10632762;27;20045;-80
2023/03/30 17:47:07;;;;;;;;;;;;;;;;;;10650379;27;20050;-80
2023/03/30 17:52:12;;;;;;;8.15;3.53;;;;;;;;;;10642439;27;19923;-81
2023/03/30 17:57:21;;;;;;;6.72;2.55;;;;;;;;;;10625309;27;20051;-81
2023/03/30 18:02:35;;;;;;;6.82;3.10;;;;;;;;;;10638330;27;20038;-81
2023/03/30 18:07:45;;;;;;;7.05;3.40;;;;;;;;;;10619593;27;20061;-81
2023/03/30 18:13:00;;;;;;;5.18;2.38;;;;;;;;;;10650147;27;20051;-81
2023/03/30 18:18:08;;;;;;;8.60;3.20;;;;;;;;;;10639566;27;20035;-81
2023/03/30 18:23:20;;;;;;;4.65;2.45;;;;;;;;;;10623877;27;20353;-81
2023/03/30 18:28:45;;;;;;;6.05;3.67;;;;;;;;;;10635588;27;20353;-81
2023/03/30 18:33:58;;;;;;;4.10;2.25;;;;;;;;;;10620842;27;20039;-80
2023/03/30 18:39:14;;;;;;;7.38;2.83;;;;;;;;;;10611267;27;20085;-80
2023/03/30 18:44:40;;;;;;;4.75;1.90;;;;;;;;;;10639494;27;20134;-81
2023/03/30 18:50:01;;;;;;;5.65;2.60;;;;;;;;;;10641966;27;20043;-81
2023/03/30 18:55:22;;;;;;;4.32;2.47;;;;;;;;;;10651174;27;20047;-80
2023/03/30 19:00:41;;;;;;;4.45;2.45;;;;;;;;;;10627939;27;20070;-80
2023/03/30 19:05:47;;;;;;;8.40;2.90;;;;;;;;;;10648128;27;20035;-80
2023/03/30 19:16:10;;;;;;;9.80;3.28;;;;;;;;;;10650586;27;19926;-81
2023/03/30 19:21:18;;;;;;;5.57;2.00;;;;;;;;;;10628097;27;20058;-81
2023/03/30 19:26:32;;;;;;;6.95;1.88;;;;;;;;;;10646396;27;20035;-80
2023/03/30 19:31:51;;;;;;;5.35;2.58;;;;;;;;;;10652931;27;20371;-80
2023/03/30 19:37:02;;;;;;;5.30;1.50;;;;;;;;;;10649453;27;20035;-81
2023/03/30 19:42:17;;;;;;;8.02;2.47;;;;;;;;;;10628175;27;20051;-81
2023/03/30 19:47:34;;;;;;;4.82;2.33;;;;;;;;;;10631492;27;20031;-80
2023/03/30 19:52:54;;;;;;;5.50;2.35;;;;;;;;;;10648634;27;20035;-81
2023/03/30 19:58:04;;;;;;;6.47;2.95;;;;;;;;;;10649202;27;20042;-80
2023/03/30 20:03:25;;;;;;;4.80;2.10;;;;;;;;;;10639699;27;20048;-82
2023/03/30 20:08:35;;;;;;;6.25;2.40;;;;;;;;;;10628808;27;20118;-80
2023/03/30 20:13:44;;;;;;;4.63;2.03;;;;;;;;;;10641011;27;20087;-80
2023/03/30 20:18:53;;;;;;;5.20;1.60;;;;;;;;;;10634438;27;20814;-79
2023/03/30 20:24:07;;;;;;;5.90;1.83;;;;;;;;;;10661134;27;20043;-80
2023/03/30 20:29:14;;;;;;;2.85;1.40;;;;;;;;;;10653309;27;20118;-79
2023/03/30 20:34:33;;;;;;;4.05;1.45;;;;;;;;;;10636626;27;20050;-81
2023/03/30 20:39:42;;;;;;;4.10;1.63;;;;;;;;;;10631351;27;20372;-82
2023/03/30 20:44:54;;;;;;;5.03;1.95;;;;;;;;;;10621663;27;20415;-78
2023/03/30 20:50:05;;;;;;;3.17;1.33;;;;;;;;;;10643129;27;20046;-79
2023/03/30 20:55:12;;;;;;;4.20;1.38;;;;;;;;;;10613173;27;20062;-79
2023/03/30 21:00:24;;;;;;;4.20;1.20;;;;;;;;;;10641285;27;20035;-79
2023/03/30 21:05:38;;;;;;;5.25;1.20;;;;;;;;;;10636179;27;20054;-80
2023/03/30 21:10:45;;;;;;;4.80;1.52;;;;;;;;;;10626583;27;20054;-77
2023/03/30 21:15:55;;;;;;;3.83;1.50;;;;;;;;;;10625869;27;20039;-77
2023/03/30 21:21:07;;;;;;;5.35;1.90;;;;;;;;;;10618098;27;20055;-77
2023/03/30 21:26:17;;;;;;;4.18;1.65;;;;;;;;;;10643898;27;20066;-77
2023/03/30 21:31:28;;;;;;;2.72;1.50;;;;;;;;;;10639994;27;20041;-78
2023/03/30 21:36:57;;;;;;;2.72;1.58;;;;;;;;;;10617665;27;20115;-80
2023/03/30 21:47:27;;;;;;;2.97;1.50;;;;;;;;;;10635999;27;20115;-82
2023/03/30 21:52:41;;;;;;;4.43;2.08;;;;;;;;;;10620295;27;20038;-80
2023/03/30 21:57:59;;;;;;;4.57;1.58;;;;;;;;;;10597413;27;20031;-80
2023/03/30 22:03:04;;;;;;;7.00;2.38;;;;;;;;;;10581727;27;20042;-78
2023/03/30 22:08:17;;;;;;;5.97;1.90;;;;;;;;;;10577235;27;20114;-79
2023/03/30 22:13:32;;;;;;;6.10;2.15;;;;;;;;;;10562751;27;20089;-79
2023/03/30 22:18:45;;;;;;;4.57;1.73;;;;;;;;;;10602393;27;20038;-79
2023/03/30 22:24:00;;;;;;;4.95;2.25;;;;;;;;;;10643298;27;20384;-79
2023/03/30 22:29:05;;;;;;;4.05;2.28;;;;;;;;;;10616951;27;20039;-78
2023/03/30 22:34:11;;;;;;;5.65;2.05;;;;;;;;;;10638468;27;20475;-78
2023/03/30 22:44:40;;;;;;;8.93;2.80;;;;;;;;;;10624995;27;20054;-78
2023/03/30 22:49:52;;;;;;;5.97;2.78;;;;;;;;;;10628894;27;20038;-78
2023/03/30 22:55:00;;;;;;;7.32;2.38;;;;;;;;;;10638747;27;20069;-78
2023/03/30 23:00:16;;;;;;;4.65;2.00;;;;;;;;;;10620088;27;20420;-78
2023/03/30 23:05:27;;;;;;;4.55;1.77;;;;;;;;;;10624399;27;20111;-78
2023/03/30 23:10:42;;;;;;;3.95;2.45;;;;;;;;;;10643188;27;20095;-78
2023/03/30 23:15:50;;;;;;;7.38;2.88;;;;;;;;;;10637661;27;20057;-77
2023/03/30 23:21:05;;;;;;;1.83;1.33;;;;;;;;;;10617876;27;20058;-79
2023/03/30 23:26:24;;;;;;;3.35;1.92;;;;;;;;;;10622448;27;20122;-78
2023/03/30 23:31:32;;;;;;;6.05;2.75;;;;;;;;;;10559146;27;20516;-78
2023/03/30 23:36:42;;;;;;;2.53;1.63;;;;;;;;;;10591331;27;20042;-78
2023/03/30 23:41:53;;;;;;;5.68;2.58;;;;;;;;;;10587024;27;20404;-77
2023/03/30 23:47:01;;;;;;;10.07;4.13;;;;;;;;;;10631117;27;20054;-78
2023/03/30 23:52:09;;;;;;;9.80;4.35;;;;;;;;;;10645762;27;20047;-79
2023/03/30 23:57:36;;;;;;;10.88;4.35;;;;;;;;;;10614522;27;20548;-78
